Time;durP1;ratioP1;P1;durP2;ratioP2;P2;SDS_P1;SDS_P2;PMS_P1;PMS_P2;Temp;Humidity;BMP_temperature;BMP_pressure;BME280_temperature;BME280_humidity;BME280_pressure;Samples;Min_cycle;Max_cycle;Signal;HPM_P1;HPM_P2
2023/11/15 00:02:17;;;;;;;0.70;0.40;;;;;;;;;;4835602;29;20184;-87
2023/11/15 00:05:21;;;;;;;1.07;0.57;;;;;;;;;;4835418;29;20219;-87
2023/11/15 00:08:25;;;;;;;1.00;0.40;;;;;;;;;;4827053;29;20562;-87
2023/11/15 00:11:29;;;;;;;1.17;0.50;;;;;;;;;;4829053;29;20192;-88
2023/11/15 00:14:33;;;;;;;0.70;0.50;;;;;;;;;;4838766;29;20228;-87
2023/11/15 00:17:37;;;;;;;2.43;0.50;;;;;;;;;;4839321;29;20196;-87
2023/11/15 00:20:42;;;;;;;0.97;0.70;;;;;;;;;;4818694;29;20196;-87
2023/11/15 00:23:45;;;;;;;1.17;0.50;;;;;;;;;;4829010;29;20196;-87
2023/11/15 00:26:50;;;;;;;1.97;0.60;;;;;;;;;;4829505;29;20185;-87
2023/11/15 00:29:54;;;;;;;0.80;0.53;;;;;;;;;;4828006;29;20196;-87
2023/11/15 00:32:58;;;;;;;1.43;0.53;;;;;;;;;;4838895;29;20197;-87
2023/11/15 00:36:02;;;;;;;1.30;0.60;;;;;;;;;;4838286;29;20239;-87
2023/11/15 00:39:08;;;;;;;3.37;0.67;;;;;;;;;;4828257;29;20196;-87
2023/11/15 00:42:13;;;;;;;1.23;0.60;;;;;;;;;;4839277;29;20204;-87
2023/11/15 00:45:17;;;;;;;1.10;0.40;;;;;;;;;;4828224;29;20228;-87
2023/11/15 00:48:20;;;;;;;0.73;0.40;;;;;;;;;;4828151;29;20188;-87
2023/11/15 00:51:24;;;;;;;1.80;0.60;;;;;;;;;;4828600;29;20192;-87
2023/11/15 00:54:29;;;;;;;0.93;0.40;;;;;;;;;;4827859;29;20586;-87
2023/11/15 00:57:34;;;;;;;1.07;0.50;;;;;;;;;;4828700;29;20196;-87
2023/11/15 01:00:44;;;;;;;3.60;0.50;;;;;;;;;;4827865;29;20196;-87
2023/11/15 01:03:55;;;;;;;0.70;0.50;;;;;;;;;;4838060;29;20192;-87
2023/11/15 01:07:00;;;;;;;1.80;0.70;;;;;;;;;;4827386;29;20212;-87
2023/11/15 01:10:08;;;;;;;2.10;0.60;;;;;;;;;;4838491;29;20543;-87
2023/11/15 01:13:14;;;;;;;2.13;0.60;;;;;;;;;;4827455;29;20669;-87
2023/11/15 01:16:17;;;;;;;0.83;0.40;;;;;;;;;;4827236;29;20239;-87
2023/11/15 01:19:22;;;;;;;2.77;0.63;;;;;;;;;;4837442;29;20200;-87
2023/11/15 01:22:26;;;;;;;0.70;0.40;;;;;;;;;;4827361;29;20188;-87
2023/11/15 01:25:30;;;;;;;2.13;0.60;;;;;;;;;;4827533;29;20567;-87
2023/11/15 01:28:35;;;;;;;0.40;0.40;;;;;;;;;;4827709;29;20524;-87
2023/11/15 01:31:39;;;;;;;2.77;0.50;;;;;;;;;;4838256;29;20197;-87
2023/11/15 01:34:44;;;;;;;1.37;0.40;;;;;;;;;;4837368;29;20227;-87
2023/11/15 01:37:50;;;;;;;1.47;0.47;;;;;;;;;;4837378;29;20200;-87
2023/11/15 01:40:53;;;;;;;2.47;0.40;;;;;;;;;;4827058;29;20188;-87
2023/11/15 01:43:57;;;;;;;0.57;0.50;;;;;;;;;;4827693;29;20196;-87
2023/11/15 01:47:02;;;;;;;0.60;0.53;;;;;;;;;;4827667;29;20283;-87
2023/11/15 01:50:15;;;;;;;0.40;0.40;;;;;;;;;;4837257;29;20647;-87
2023/11/15 01:53:19;;;;;;;2.90;0.70;;;;;;;;;;4826631;29;20188;-87
2023/11/15 01:56:25;;;;;;;1.60;0.60;;;;;;;;;;4837005;29;20235;-87
2023/11/15 01:59:29;;;;;;;1.53;0.50;;;;;;;;;;4837659;29;20647;-87
2023/11/15 02:02:33;;;;;;;0.30;0.30;;;;;;;;;;4827073;29;20642;-87
2023/11/15 02:05:38;;;;;;;1.77;0.40;;;;;;;;;;4836976;29;20227;-87
2023/11/15 02:08:42;;;;;;;0.67;0.50;;;;;;;;;;4827669;29;20189;-87
2023/11/15 02:11:46;;;;;;;0.33;0.33;;;;;;;;;;4836883;29;20193;-87
2023/11/15 02:14:51;;;;;;;1.00;0.50;;;;;;;;;;4836825;29;20236;-87
2023/11/15 02:17:54;;;;;;;1.70;0.40;;;;;;;;;;4826167;29;20192;-87
2023/11/15 02:20:58;;;;;;;1.23;0.50;;;;;;;;;;4826226;29;20188;-87
2023/11/15 02:24:03;;;;;;;0.87;0.30;;;;;;;;;;4836384;29;20197;-87
2023/11/15 02:27:07;;;;;;;2.10;0.50;;;;;;;;;;4836943;29;20184;-87
2023/11/15 02:30:12;;;;;;;1.37;0.50;;;;;;;;;;4826085;29;20192;-87
2023/11/15 02:33:16;;;;;;;1.53;0.60;;;;;;;;;;4826647;29;20634;-88
2023/11/15 02:36:20;;;;;;;0.40;0.40;;;;;;;;;;4826106;29;20236;-87
2023/11/15 02:39:24;;;;;;;1.13;0.40;;;;;;;;;;4825969;29;20193;-87
2023/11/15 02:42:28;;;;;;;0.90;0.40;;;;;;;;;;4826357;29;20188;-87
2023/11/15 02:45:33;;;;;;;1.00;0.40;;;;;;;;;;4836326;29;20228;-87
2023/11/15 02:48:37;;;;;;;0.83;0.40;;;;;;;;;;4825914;29;20188;-87
2023/11/15 02:51:41;;;;;;;2.47;0.90;;;;;;;;;;4826070;29;20192;-87
2023/11/15 02:54:46;;;;;;;1.53;0.60;;;;;;;;;;4893037;23;20213;-84
2023/11/15 02:57:50;;;;;;;0.70;0.50;;;;;;;;;;4854188;29;20195;-84
2023/11/15 03:00:54;;;;;;;0.83;0.60;;;;;;;;;;4854252;29;20191;-85
2023/11/15 03:03:59;;;;;;;1.40;0.47;;;;;;;;;;4855330;29;20190;-85
2023/11/15 03:07:02;;;;;;;2.23;0.87;;;;;;;;;;4836907;29;20187;-84
2023/11/15 03:10:08;;;;;;;0.40;0.40;;;;;;;;;;4836705;29;20192;-84
2023/11/15 03:13:12;;;;;;;0.60;0.50;;;;;;;;;;4825340;29;20531;-84
2023/11/15 03:16:16;;;;;;;0.63;0.50;;;;;;;;;;4835771;29;20227;-84
2023/11/15 03:19:20;;;;;;;1.80;0.70;;;;;;;;;;4836033;29;20192;-84
2023/11/15 03:22:24;;;;;;;3.20;0.60;;;;;;;;;;4825493;29;20195;-85
2023/11/15 03:25:29;;;;;;;1.33;0.53;;;;;;;;;;4824673;29;20222;-84
2023/11/15 03:28:33;;;;;;;2.60;0.50;;;;;;;;;;4824590;29;20534;-84
2023/11/15 03:31:37;;;;;;;3.50;0.60;;;;;;;;;;4835621;29;20192;-84
2023/11/15 03:34:42;;;;;;;3.20;0.50;;;;;;;;;;4824760;29;20191;-84
2023/11/15 03:37:46;;;;;;;0.93;0.50;;;;;;;;;;4824286;29;20180;-85
2023/11/15 03:40:51;;;;;;;1.57;0.70;;;;;;;;;;4835000;29;20196;-84
2023/11/15 03:43:55;;;;;;;1.63;0.60;;;;;;;;;;4827136;29;20518;-84
2023/11/15 03:46:59;;;;;;;2.73;0.70;;;;;;;;;;4839024;29;20526;-84
2023/11/15 03:50:04;;;;;;;2.23;0.70;;;;;;;;;;4838858;29;20188;-84
2023/11/15 03:53:08;;;;;;;0.97;0.43;;;;;;;;;;4850538;29;20192;-84
2023/11/15 03:56:13;;;;;;;1.57;0.60;;;;;;;;;;4849866;29;20234;-84
2023/11/15 03:59:17;;;;;;;4.17;0.70;;;;;;;;;;4839718;29;20200;-84
2023/11/15 04:02:21;;;;;;;3.20;0.70;;;;;;;;;;4828990;29;20200;-85
2023/11/15 04:05:27;;;;;;;1.40;0.60;;;;;;;;;;4851153;29;20227;-84
2023/11/15 04:08:31;;;;;;;3.13;0.60;;;;;;;;;;4850838;29;20199;-84
2023/11/15 04:11:37;;;;;;;4.67;0.80;;;;;;;;;;4828617;29;20196;-84
2023/11/15 04:14:41;;;;;;;2.10;0.60;;;;;;;;;;4839599;29;20192;-84
2023/11/15 04:17:46;;;;;;;1.57;0.60;;;;;;;;;;4839486;29;20506;-84
2023/11/15 04:20:50;;;;;;;2.97;0.83;;;;;;;;;;4839364;29;20200;-85
2023/11/15 04:23:55;;;;;;;2.90;0.60;;;;;;;;;;4849997;29;20191;-85
2023/11/15 04:26:59;;;;;;;1.83;0.70;;;;;;;;;;4839570;29;20184;-84
2023/11/15 04:30:04;;;;;;;2.40;0.50;;;;;;;;;;4839320;29;20196;-84
2023/11/15 04:33:09;;;;;;;3.07;0.70;;;;;;;;;;4839650;29;20199;-85
2023/11/15 04:36:14;;;;;;;5.10;0.70;;;;;;;;;;4848527;29;20578;-84
2023/11/15 04:39:18;;;;;;;2.83;0.70;;;;;;;;;;4839570;29;20196;-84
2023/11/15 04:42:22;;;;;;;1.47;0.80;;;;;;;;;;4838322;29;20191;-84
2023/11/15 04:45:27;;;;;;;4.13;0.70;;;;;;;;;;4849958;29;20227;-85
2023/11/15 04:48:31;;;;;;;1.97;0.80;;;;;;;;;;4839111;29;20200;-84
2023/11/15 04:51:36;;;;;;;1.93;0.67;;;;;;;;;;4828795;29;20637;-84
2023/11/15 04:54:41;;;;;;;6.50;0.70;;;;;;;;;;4838417;29;20187;-84
2023/11/15 04:57:45;;;;;;;1.93;0.60;;;;;;;;;;4827709;29;20538;-84
2023/11/15 05:00:49;;;;;;;1.70;0.80;;;;;;;;;;4828050;29;20196;-84
2023/11/15 05:03:54;;;;;;;1.70;0.57;;;;;;;;;;4838736;29;20191;-84
2023/11/15 05:06:57;;;;;;;0.80;0.53;;;;;;;;;;4816566;29;20184;-85
2023/11/15 05:10:04;;;;;;;1.57;0.57;;;;;;;;;;4827766;29;20192;-84
2023/11/15 05:13:08;;;;;;;3.23;0.90;;;;;;;;;;4837912;29;20191;-84
2023/11/15 05:16:13;;;;;;;1.67;0.60;;;;;;;;;;4838025;29;20243;-85
2023/11/15 05:19:16;;;;;;;3.40;0.70;;;;;;;;;;4827298;29;20192;-84
2023/11/15 05:22:20;;;;;;;2.60;0.77;;;;;;;;;;4837964;29;20538;-85
2023/11/15 05:25:24;;;;;;;2.47;0.90;;;;;;;;;;4837369;29;20577;-84
2023/11/15 05:28:29;;;;;;;2.23;0.77;;;;;;;;;;4848080;29;20191;-84
2023/11/15 05:31:33;;;;;;;6.90;0.80;;;;;;;;;;4827465;29;20195;-84
2023/11/15 05:34:37;;;;;;;2.07;0.80;;;;;;;;;;4837586;29;20196;-85
2023/11/15 05:37:41;;;;;;;0.97;0.63;;;;;;;;;;4837456;29;20689;-85
2023/11/15 05:40:46;;;;;;;1.53;0.70;;;;;;;;;;4837827;29;20637;-85
2023/11/15 05:43:50;;;;;;;2.47;0.60;;;;;;;;;;4827472;29;20192;-85
2023/11/15 05:46:54;;;;;;;2.40;0.80;;;;;;;;;;4838238;29;20192;-84
2023/11/15 05:49:58;;;;;;;3.70;0.90;;;;;;;;;;4838572;29;20192;-85
2023/11/15 05:53:03;;;;;;;3.03;0.70;;;;;;;;;;4837877;29;20214;-85
2023/11/15 05:56:07;;;;;;;5.87;0.80;;;;;;;;;;4827557;29;20243;-84
2023/11/15 05:59:13;;;;;;;3.47;0.70;;;;;;;;;;4849151;29;20310;-85
2023/11/15 06:02:17;;;;;;;2.30;0.83;;;;;;;;;;4838709;29;20192;-85
2023/11/15 06:05:22;;;;;;;2.87;0.70;;;;;;;;;;4837427;29;20227;-84
2023/11/15 06:08:26;;;;;;;1.00;0.70;;;;;;;;;;4828018;29;20550;-85
2023/11/15 06:11:31;;;;;;;1.57;0.70;;;;;;;;;;4827361;29;20195;-85
2023/11/15 06:14:35;;;;;;;2.43;0.60;;;;;;;;;;4837720;29;20195;-85
2023/11/15 06:17:39;;;;;;;2.57;0.70;;;;;;;;;;4837109;29;20564;-85
2023/11/15 06:20:43;;;;;;;3.23;0.60;;;;;;;;;;4848951;29;20200;-84
2023/11/15 06:23:47;;;;;;;5.60;3.10;;;;;;;;;;4838493;29;20191;-85
2023/11/15 06:26:52;;;;;;;6.30;4.20;;;;;;;;;;4827648;29;20527;-85
2023/11/15 06:29:56;;;;;;;1.70;1.07;;;;;;;;;;4837222;29;20527;-85
2023/11/15 06:33:00;;;;;;;4.73;2.33;;;;;;;;;;4838813;29;20535;-85
2023/11/15 06:36:05;;;;;;;2.43;1.13;;;;;;;;;;4827904;29;20692;-85
2023/11/15 06:39:12;;;;;;;1.77;0.80;;;;;;;;;;4839746;29;20200;-85
2023/11/15 06:42:16;;;;;;;5.17;0.80;;;;;;;;;;4830521;29;20657;-85
2023/11/15 06:45:20;;;;;;;3.60;1.00;;;;;;;;;;4839946;29;20231;-85
2023/11/15 06:48:25;;;;;;;1.83;0.70;;;;;;;;;;4840384;29;20192;-84
2023/11/15 06:51:29;;;;;;;5.63;3.30;;;;;;;;;;4830058;29;20192;-84
2023/11/15 06:54:33;;;;;;;15.87;8.53;;;;;;;;;;4828687;29;20199;-85
2023/11/15 06:57:40;;;;;;;10.40;6.00;;;;;;;;;;4838943;29;20215;-84
2023/11/15 07:00:45;;;;;;;2.07;1.30;;;;;;;;;;4836468;29;20203;-85
2023/11/15 07:03:49;;;;;;;2.20;0.80;;;;;;;;;;4825351;29;20191;-85
2023/11/15 07:06:53;;;;;;;1.43;0.70;;;;;;;;;;4825138;29;20522;-85
2023/11/15 07:09:58;;;;;;;5.80;0.90;;;;;;;;;;4835783;29;20191;-84
2023/11/15 07:13:02;;;;;;;4.00;2.53;;;;;;;;;;4835831;29;20196;-85
2023/11/15 07:16:10;;;;;;;8.20;6.83;;;;;;;;;;4836283;29;20226;-85
2023/11/15 07:19:15;;;;;;;4.37;2.97;;;;;;;;;;4846782;29;20188;-85
2023/11/15 07:22:19;;;;;;;3.50;1.93;;;;;;;;;;4848254;29;20195;-84
2023/11/15 07:25:23;;;;;;;5.73;2.80;;;;;;;;;;4825343;29;20231;-85
2023/11/15 07:28:28;;;;;;;9.47;4.70;;;;;;;;;;4837703;29;20188;-85
2023/11/15 07:31:32;;;;;;;4.63;2.60;;;;;;;;;;4828283;29;20192;-84
2023/11/15 07:34:39;;;;;;;6.43;3.30;;;;;;;;;;4849046;29;20192;-84
2023/11/15 07:37:43;;;;;;;10.40;5.37;;;;;;;;;;4839149;29;20215;-85
2023/11/15 07:40:48;;;;;;;9.80;5.23;;;;;;;;;;4838032;29;20191;-84
2023/11/15 07:43:54;;;;;;;6.53;3.00;;;;;;;;;;4849033;29;20196;-84
2023/11/15 07:47:01;;;;;;;12.63;6.30;;;;;;;;;;4826795;29;20188;-85
2023/11/15 07:50:06;;;;;;;6.07;2.27;;;;;;;;;;4846600;29;20196;-84
2023/11/15 07:53:10;;;;;;;9.77;3.67;;;;;;;;;;4844882;29;20530;-85
2023/11/15 07:56:19;;;;;;;5.23;2.70;;;;;;;;;;4844184;29;20234;-85
2023/11/15 07:59:23;;;;;;;3.60;0.87;;;;;;;;;;4822518;29;20192;-85
2023/11/15 08:02:27;;;;;;;3.57;0.70;;;;;;;;;;4833892;29;20188;-84
2023/11/15 08:05:31;;;;;;;1.00;0.50;;;;;;;;;;4844439;29;20230;-84
2023/11/15 08:08:38;;;;;;;1.10;0.53;;;;;;;;;;4844361;29;20184;-85
2023/11/15 08:11:45;;;;;;;1.43;0.50;;;;;;;;;;4833484;29;20192;-85
2023/11/15 08:14:49;;;;;;;0.50;0.40;;;;;;;;;;4844340;29;20227;-84
2023/11/15 08:17:53;;;;;;;6.17;0.70;;;;;;;;;;4832983;29;20223;-84
2023/11/15 08:20:57;;;;;;;1.77;0.50;;;;;;;;;;4844690;29;20514;-85
2023/11/15 08:24:01;;;;;;;1.07;0.60;;;;;;;;;;4833082;29;20200;-85
2023/11/15 08:27:06;;;;;;;0.60;0.53;;;;;;;;;;4833429;29;20191;-84
2023/11/15 08:30:14;;;;;;;0.70;0.50;;;;;;;;;;4836597;29;20187;-84
2023/11/15 08:33:19;;;;;;;2.80;0.60;;;;;;;;;;4837615;29;20188;-84
2023/11/15 08:36:23;;;;;;;1.17;0.60;;;;;;;;;;4827055;29;20227;-84
2023/11/15 08:39:27;;;;;;;1.77;0.83;;;;;;;;;;4837179;29;20188;-84
2023/11/15 08:42:32;;;;;;;2.17;0.63;;;;;;;;;;4846870;29;20195;-85
2023/11/15 08:45:41;;;;;;;2.00;0.70;;;;;;;;;;4845361;29;20231;-86
2023/11/15 08:48:45;;;;;;;0.93;0.50;;;;;;;;;;4846923;29;20188;-86
2023/11/15 08:51:50;;;;;;;1.87;0.60;;;;;;;;;;4835601;29;20188;-86
2023/11/15 08:54:56;;;;;;;2.93;0.70;;;;;;;;;;4846767;29;20235;-84
2023/11/15 08:58:00;;;;;;;1.47;0.70;;;;;;;;;;4836635;29;20223;-84
2023/11/15 09:01:05;;;;;;;1.50;0.70;;;;;;;;;;4836906;29;20192;-84
2023/11/15 09:04:12;;;;;;;2.53;0.60;;;;;;;;;;4836599;29;20646;-83
2023/11/15 09:07:19;;;;;;;0.40;0.40;;;;;;;;;;4836815;29;20184;-84
2023/11/15 09:10:25;;;;;;;2.70;0.40;;;;;;;;;;4836874;29;20191;-84
2023/11/15 09:13:29;;;;;;;0.57;0.33;;;;;;;;;;4848218;29;20192;-84
2023/11/15 09:16:33;;;;;;;2.60;0.57;;;;;;;;;;4848276;29;20327;-84
2023/11/15 09:19:37;;;;;;;1.17;0.50;;;;;;;;;;4827240;29;20184;-83
2023/11/15 09:22:45;;;;;;;4.40;0.50;;;;;;;;;;4848399;29;20200;-84
2023/11/15 09:25:52;;;;;;;1.50;0.50;;;;;;;;;;4825975;29;20581;-84
2023/11/15 09:28:57;;;;;;;1.10;0.70;;;;;;;;;;4847742;29;20187;-84
2023/11/15 09:32:01;;;;;;;1.60;0.70;;;;;;;;;;4848300;29;20191;-84
2023/11/15 09:35:10;;;;;;;1.37;0.60;;;;;;;;;;4845298;29;20235;-84
2023/11/15 09:38:14;;;;;;;1.60;0.60;;;;;;;;;;4836173;29;20677;-84
2023/11/15 09:41:21;;;;;;;1.83;0.80;;;;;;;;;;4834650;29;20196;-84
2023/11/15 09:44:25;;;;;;;4.57;0.80;;;;;;;;;;4825730;29;20195;-84
2023/11/15 09:47:29;;;;;;;1.33;0.50;;;;;;;;;;4824065;29;20187;-85
2023/11/15 09:50:36;;;;;;;0.87;0.40;;;;;;;;;;4834383;29;20195;-84
2023/11/15 09:53:40;;;;;;;1.70;0.80;;;;;;;;;;4836151;29;20192;-84
2023/11/15 09:56:44;;;;;;;1.77;0.63;;;;;;;;;;4848035;29;20235;-84
2023/11/15 09:59:48;;;;;;;2.40;0.77;;;;;;;;;;4825838;29;20188;-84
2023/11/15 10:02:53;;;;;;;1.47;0.73;;;;;;;;;;4847597;29;20543;-84
2023/11/15 10:06:03;;;;;;;2.17;0.70;;;;;;;;;;4847471;29;20231;-84
2023/11/15 10:09:07;;;;;;;1.37;0.70;;;;;;;;;;4826920;29;20650;-84
2023/11/15 10:12:12;;;;;;;0.63;0.50;;;;;;;;;;4828124;29;20196;-85
2023/11/15 10:15:20;;;;;;;4.13;0.73;;;;;;;;;;4838047;29;20227;-85
2023/11/15 10:18:33;;;;;;;3.00;0.70;;;;;;;;;;4838227;29;20219;-85
2023/11/15 10:21:37;;;;;;;3.17;0.63;;;;;;;;;;4837846;29;20188;-85
2023/11/15 10:24:41;;;;;;;3.13;0.53;;;;;;;;;;4847424;29;20200;-86
2023/11/15 10:27:46;;;;;;;3.00;0.93;;;;;;;;;;4825428;29;20192;-85
2023/11/15 10:31:04;;;;;;;3.67;0.90;;;;;;;;;;4836740;29;20196;-85
2023/11/15 10:34:13;;;;;;;1.80;0.80;;;;;;;;;;4836376;29;20192;-84
2023/11/15 10:37:17;;;;;;;3.43;0.80;;;;;;;;;;4837617;29;20645;-85
2023/11/15 10:40:25;;;;;;;3.77;0.90;;;;;;;;;;4847630;29;20192;-85
2023/11/15 10:43:30;;;;;;;10.40;4.07;;;;;;;;;;4815857;29;20195;-84
2023/11/15 10:46:39;;;;;;;10.43;4.33;;;;;;;;;;4836276;29;20234;-85
2023/11/15 10:49:44;;;;;;;3.97;1.90;;;;;;;;;;4848332;29;20195;-84
2023/11/15 10:52:50;;;;;;;4.27;1.47;;;;;;;;;;4836449;29;20646;-84
2023/11/15 10:55:57;;;;;;;6.27;2.87;;;;;;;;;;4846935;29;20235;-84
2023/11/15 10:59:04;;;;;;;1.50;0.80;;;;;;;;;;4835819;29;20566;-87
2023/11/15 11:02:11;;;;;;;5.87;1.13;;;;;;;;;;4847823;29;20515;-85
2023/11/15 11:05:46;;;;;;;6.07;1.20;;;;;;;;;;4837141;29;20230;-84
2023/11/15 11:09:18;;;;;;;3.27;1.00;;;;;;;;;;4847639;29;20188;-84
2023/11/15 11:12:23;;;;;;;4.47;1.40;;;;;;;;;;4836566;29;20535;-84
2023/11/15 11:15:31;;;;;;;6.07;3.33;;;;;;;;;;4836562;29;20227;-86
2023/11/15 11:18:35;;;;;;;7.53;4.57;;;;;;;;;;4848032;29;20220;-85
2023/11/15 11:22:01;;;;;;;7.17;4.23;;;;;;;;;;4848446;29;20649;-85
2023/11/15 11:25:06;;;;;;;3.17;1.77;;;;;;;;;;4848059;29;20223;-83
2023/11/15 11:28:14;;;;;;;3.17;1.60;;;;;;;;;;4837911;29;20188;-84
2023/11/15 11:31:18;;;;;;;4.83;1.77;;;;;;;;;;4827458;29;20191;-85
2023/11/15 11:34:24;;;;;;;2.57;1.70;;;;;;;;;;4827974;29;20519;-85
2023/11/15 11:37:50;;;;;;;2.60;0.80;;;;;;;;;;4848053;29;20196;-85
2023/11/15 11:40:54;;;;;;;2.13;0.93;;;;;;;;;;4836136;29;20192;-85
2023/11/15 11:43:59;;;;;;;2.23;0.80;;;;;;;;;;4848926;29;20188;-85
2023/11/15 11:47:03;;;;;;;1.70;0.80;;;;;;;;;;4838254;29;20196;-85
2023/11/15 11:50:08;;;;;;;1.40;0.70;;;;;;;;;;4838424;29;20191;-85
2023/11/15 11:53:12;;;;;;;3.57;1.07;;;;;;;;;;4828885;29;20192;-84
2023/11/15 11:56:16;;;;;;;1.33;0.67;;;;;;;;;;4848125;29;20235;-85
2023/11/15 11:59:20;;;;;;;2.67;0.77;;;;;;;;;;4827393;29;20219;-85
2023/11/15 12:02:35;;;;;;;3.33;0.70;;;;;;;;;;4838082;29;20196;-85
2023/11/15 12:05:38;;;;;;;2.67;0.73;;;;;;;;;;4842180;29;20227;-85
2023/11/15 12:08:49;;;;;;;0.87;0.57;;;;;;;;;;4842040;29;20634;-85
2023/11/15 12:11:53;;;;;;;1.77;0.70;;;;;;;;;;4830864;29;20188;-85
2023/11/15 12:14:59;;;;;;;3.53;0.67;;;;;;;;;;4831708;29;20231;-85
2023/11/15 12:18:06;;;;;;;1.83;0.63;;;;;;;;;;4852791;29;20223;-85
2023/11/15 12:21:12;;;;;;;1.97;0.70;;;;;;;;;;4840704;29;20196;-84
2023/11/15 12:24:22;;;;;;;1.57;0.80;;;;;;;;;;4851743;29;20195;-84
2023/11/15 12:27:26;;;;;;;2.17;0.80;;;;;;;;;;4840033;29;20196;-84
2023/11/15 12:30:32;;;;;;;1.00;0.50;;;;;;;;;;4839750;29;20195;-84
2023/11/15 12:33:36;;;;;;;2.47;0.80;;;;;;;;;;4851760;29;20192;-84
2023/11/15 12:36:42;;;;;;;2.83;0.87;;;;;;;;;;4851496;29;20235;-83
2023/11/15 12:39:46;;;;;;;1.87;0.80;;;;;;;;;;4839634;29;20215;-84
2023/11/15 12:42:56;;;;;;;2.83;0.50;;;;;;;;;;4840203;29;20626;-84
2023/11/15 12:46:14;;;;;;;1.60;0.53;;;;;;;;;;4838650;29;20223;-85
2023/11/15 12:49:26;;;;;;;1.23;0.50;;;;;;;;;;4838561;29;20188;-84
2023/11/15 12:52:32;;;;;;;1.43;0.40;;;;;;;;;;4838681;29;20531;-83
2023/11/15 12:55:45;;;;;;;1.17;0.33;;;;;;;;;;4838124;29;20239;-84
2023/11/15 12:58:51;;;;;;;1.70;0.53;;;;;;;;;;4839656;29;20215;-84
2023/11/15 13:01:55;;;;;;;2.00;0.57;;;;;;;;;;4826445;29;20195;-84
2023/11/15 13:05:03;;;;;;;0.60;0.40;;;;;;;;;;4836018;29;20231;-83
2023/11/15 13:08:07;;;;;;;1.13;0.50;;;;;;;;;;4825761;29;20191;-83
2023/11/15 13:11:16;;;;;;;0.50;0.40;;;;;;;;;;4836672;29;20192;-84
2023/11/15 13:14:22;;;;;;;1.27;0.60;;;;;;;;;;4847205;29;20192;-83
2023/11/15 13:17:26;;;;;;;1.17;0.60;;;;;;;;;;4836984;29;20196;-84
2023/11/15 13:20:34;;;;;;;2.03;0.70;;;;;;;;;;4847924;29;20650;-83
2023/11/15 13:23:45;;;;;;;1.47;0.60;;;;;;;;;;4836867;29;20195;-85
2023/11/15 13:26:50;;;;;;;1.67;0.60;;;;;;;;;;4839743;29;20224;-84
2023/11/15 13:29:54;;;;;;;2.63;0.63;;;;;;;;;;4849995;29;20184;-84
2023/11/15 13:32:59;;;;;;;2.10;1.03;;;;;;;;;;4850897;29;20187;-84
2023/11/15 13:36:05;;;;;;;1.43;0.60;;;;;;;;;;4838817;29;20223;-85
2023/11/15 13:39:12;;;;;;;2.70;1.13;;;;;;;;;;4850628;29;20215;-84
2023/11/15 13:42:16;;;;;;;3.00;1.20;;;;;;;;;;4850535;29;20200;-84
2023/11/15 13:45:22;;;;;;;3.70;1.50;;;;;;;;;;4838898;29;20226;-84
2023/11/15 13:48:26;;;;;;;5.00;2.10;;;;;;;;;;4839942;29;20191;-85
2023/11/15 13:51:31;;;;;;;25.97;13.63;;;;;;;;;;4850887;29;20200;-84
2023/11/15 13:54:35;;;;;;;9.47;3.93;;;;;;;;;;4838716;29;20195;-84
2023/11/15 13:57:39;;;;;;;4.83;2.80;;;;;;;;;;4851107;29;20192;-84
2023/11/15 14:00:43;;;;;;;1.33;1.20;;;;;;;;;;4850731;29;20184;-84
2023/11/15 14:03:48;;;;;;;3.20;2.27;;;;;;;;;;4850865;29;20196;-85
2023/11/15 14:06:52;;;;;;;8.03;5.20;;;;;;;;;;4839407;29;20199;-84
2023/11/15 14:09:57;;;;;;;5.80;2.97;;;;;;;;;;4850350;29;20200;-84
2023/11/15 14:13:02;;;;;;;2.90;1.40;;;;;;;;;;4838584;29;20192;-85
2023/11/15 14:16:07;;;;;;;3.17;1.90;;;;;;;;;;4849520;29;20602;-84
2023/11/15 14:19:11;;;;;;;2.07;1.63;;;;;;;;;;4837130;29;20224;-84
2023/11/15 14:22:15;;;;;;;5.17;3.53;;;;;;;;;;4835317;29;20539;-83
2023/11/15 14:25:20;;;;;;;6.30;5.70;;;;;;;;;;4835411;29;20700;-83
2023/11/15 14:28:26;;;;;;;6.03;5.47;;;;;;;;;;4835066;29;20192;-83
2023/11/15 14:31:36;;;;;;;9.07;7.10;;;;;;;;;;4835451;29;20526;-83
2023/11/15 14:34:41;;;;;;;12.40;8.40;;;;;;;;;;4825239;29;20191;-84
2023/11/15 14:37:48;;;;;;;23.33;16.23;;;;;;;;;;4835782;29;20192;-83
2023/11/15 14:40:53;;;;;;;50.17;24.33;;;;;;;;;;4846987;29;20191;-83
2023/11/15 14:43:56;;;;;;;62.67;33.37;;;;;;;;;;4835697;29;20204;-83
2023/11/15 14:47:01;;;;;;;12.10;8.27;;;;;;;;;;4827377;29;20202;-84
2023/11/15 14:50:09;;;;;;;2.33;2.10;;;;;;;;;;4837574;29;20188;-84
2023/11/15 14:53:28;;;;;;;3.40;2.00;;;;;;;;;;4837843;29;20187;-83
2023/11/15 14:56:33;;;;;;;2.47;1.13;;;;;;;;;;4875043;23;20248;-83
2023/11/15 14:59:46;;;;;;;2.70;0.80;;;;;;;;;;4833725;29;20216;-83
2023/11/15 15:02:54;;;;;;;1.77;1.00;;;;;;;;;;4842111;29;20630;-87
2023/11/15 15:05:58;;;;;;;1.10;0.80;;;;;;;;;;4837539;29;20224;-87
2023/11/15 15:09:03;;;;;;;3.13;1.00;;;;;;;;;;4837881;29;20192;-87
2023/11/15 15:12:08;;;;;;;1.77;0.80;;;;;;;;;;4828605;29;20196;-87
2023/11/15 15:15:16;;;;;;;2.90;1.80;;;;;;;;;;4827284;29;20231;-87
2023/11/15 15:18:20;;;;;;;6.00;3.00;;;;;;;;;;4838206;29;20196;-85
2023/11/15 15:21:24;;;;;;;2.17;1.17;;;;;;;;;;4829518;29;20646;-87
2023/11/15 15:24:28;;;;;;;1.80;1.07;;;;;;;;;;4827447;29;20192;-86
2023/11/15 15:27:33;;;;;;;3.13;1.20;;;;;;;;;;4842685;29;20200;-83
2023/11/15 15:30:38;;;;;;;2.20;1.87;;;;;;;;;;4832438;29;20188;-85
2023/11/15 15:33:42;;;;;;;4.07;2.47;;;;;;;;;;4828691;29;20204;-85
2023/11/15 15:36:46;;;;;;;3.80;2.70;;;;;;;;;;4839375;29;20228;-84
2023/11/15 15:39:50;;;;;;;2.73;2.40;;;;;;;;;;4827512;29;20567;-85
2023/11/15 15:42:56;;;;;;;3.90;2.10;;;;;;;;;;4826093;29;20638;-84
2023/11/15 15:46:00;;;;;;;9.13;6.23;;;;;;;;;;4825389;29;20227;-84
2023/11/15 15:49:05;;;;;;;12.13;10.00;;;;;;;;;;4837162;29;20188;-85
2023/11/15 15:52:11;;;;;;;5.80;2.40;;;;;;;;;;4828072;29;20201;-85
2023/11/15 15:55:16;;;;;;;4.07;1.40;;;;;;;;;;4837428;29;20236;-85
2023/11/15 15:58:20;;;;;;;3.83;2.27;;;;;;;;;;4828108;29;20188;-85
2023/11/15 16:01:28;;;;;;;7.87;2.90;;;;;;;;;;4837469;29;20180;-86
2023/11/15 16:04:32;;;;;;;6.63;3.40;;;;;;;;;;4828235;29;20201;-85
2023/11/15 16:07:36;;;;;;;6.13;2.63;;;;;;;;;;4837122;29;20532;-84
2023/11/15 16:10:40;;;;;;;5.63;1.67;;;;;;;;;;4826296;29;20189;-85
2023/11/15 16:13:44;;;;;;;2.80;1.70;;;;;;;;;;4836692;29;20200;-85
2023/11/15 16:16:49;;;;;;;2.87;1.93;;;;;;;;;;4835245;29;20236;-85
2023/11/15 16:19:53;;;;;;;3.43;1.83;;;;;;;;;;4825675;29;20674;-84
2023/11/15 16:22:58;;;;;;;6.30;2.60;;;;;;;;;;4824637;29;20196;-84
2023/11/15 16:26:06;;;;;;;3.20;1.53;;;;;;;;;;4825349;29;20224;-85
2023/11/15 16:29:14;;;;;;;2.50;1.40;;;;;;;;;;4834627;29;20181;-84
2023/11/15 16:32:19;;;;;;;3.20;1.13;;;;;;;;;;4825574;29;20196;-85
2023/11/15 16:35:24;;;;;;;3.13;1.00;;;;;;;;;;4835133;29;20315;-84
2023/11/15 16:38:28;;;;;;;3.13;1.10;;;;;;;;;;4834845;29;20192;-85
2023/11/15 16:41:45;;;;;;;2.37;0.90;;;;;;;;;;4824233;29;20188;-85
2023/11/15 16:44:49;;;;;;;4.63;0.93;;;;;;;;;;4826018;29;20528;-87
2023/11/15 16:47:53;;;;;;;3.73;1.07;;;;;;;;;;4825622;29;20642;-88
2023/11/15 16:50:58;;;;;;;2.27;0.83;;;;;;;;;;4816989;29;20197;-88
2023/11/15 16:54:02;;;;;;;2.93;1.47;;;;;;;;;;4839254;29;20196;-88
2023/11/15 16:57:06;;;;;;;2.27;1.10;;;;;;;;;;4840052;29;20235;-88
2023/11/15 17:00:13;;;;;;;1.43;1.07;;;;;;;;;;4829702;29;20224;-88
2023/11/15 17:03:17;;;;;;;8.70;1.07;;;;;;;;;;4829595;29;20196;-88
2023/11/15 17:06:23;;;;;;;5.30;1.07;;;;;;;;;;4838804;29;20232;-88
2023/11/15 17:09:28;;;;;;;4.00;1.20;;;;;;;;;;4828570;29;20184;-87
2023/11/15 17:12:32;;;;;;;1.73;1.00;;;;;;;;;;4839933;29;20193;-88
2023/11/15 17:15:36;;;;;;;2.73;1.47;;;;;;;;;;4827669;29;20232;-87
2023/11/15 17:18:41;;;;;;;8.37;4.90;;;;;;;;;;4828747;29;20187;-88
2023/11/15 17:21:46;;;;;;;10.03;6.07;;;;;;;;;;4827536;29;20658;-88
2023/11/15 17:24:52;;;;;;;8.10;4.90;;;;;;;;;;4828232;29;20192;-87
2023/11/15 17:27:56;;;;;;;3.83;1.63;;;;;;;;;;4828149;29;20197;-88
2023/11/15 17:31:00;;;;;;;3.20;2.00;;;;;;;;;;4829058;29;20188;-88
2023/11/15 17:34:05;;;;;;;4.03;1.97;;;;;;;;;;4827983;29;20188;-88
2023/11/15 17:37:10;;;;;;;8.43;3.07;;;;;;;;;;4839373;29;20231;-87
2023/11/15 17:40:15;;;;;;;29.13;19.53;;;;;;;;;;4839753;29;20224;-88
2023/11/15 17:43:20;;;;;;;7.03;4.23;;;;;;;;;;4839362;29;20264;-88
2023/11/15 17:46:25;;;;;;;3.80;2.50;;;;;;;;;;4831076;29;20228;-87
2023/11/15 17:49:29;;;;;;;3.83;1.70;;;;;;;;;;4831362;29;20196;-88
2023/11/15 17:52:33;;;;;;;4.27;1.60;;;;;;;;;;4832317;29;20200;-87
2023/11/15 17:55:37;;;;;;;7.27;2.33;;;;;;;;;;4829036;29;20235;-87
2023/11/15 17:58:41;;;;;;;4.23;1.70;;;;;;;;;;4829787;29;20559;-86
2023/11/15 18:01:45;;;;;;;2.90;1.13;;;;;;;;;;4830060;29;20184;-86
2023/11/15 18:04:50;;;;;;;3.40;1.33;;;;;;;;;;4831831;29;20196;-86
2023/11/15 18:07:55;;;;;;;2.37;1.23;;;;;;;;;;4832097;29;20196;-86
2023/11/15 18:10:59;;;;;;;3.47;1.00;;;;;;;;;;4831570;29;20188;-87
2023/11/15 18:14:03;;;;;;;7.10;1.90;;;;;;;;;;4842514;29;20591;-87
2023/11/15 18:17:08;;;;;;;5.13;1.80;;;;;;;;;;4840744;29;20578;-88
2023/11/15 18:20:13;;;;;;;2.67;1.17;;;;;;;;;;4843068;29;20224;-87
2023/11/15 18:23:17;;;;;;;2.60;1.37;;;;;;;;;;4830964;29;20192;-87
2023/11/15 18:26:22;;;;;;;4.13;1.20;;;;;;;;;;4841549;29;20231;-88
2023/11/15 18:29:26;;;;;;;1.63;1.00;;;;;;;;;;4831376;29;20196;-88
2023/11/15 18:32:31;;;;;;;2.53;1.60;;;;;;;;;;4840341;29;20192;-87